Beverly Municipal Airport Beverly US
ICAO: KBVY
IATA: BVY
Category: Medium
Scheduled Services: No

Elevation: 107 ft
TransAlt. 18000 ft.

Airport Communications:
BOSTON APP/DEP:124.4
ATIS:119.2
CTAF:125.2
GND:121.6
TWR:125.2
UNICOM:122.95

KBVY Zoom In..

If you have problems with the map follow the link
https://www.worldairports.se/pages/airport.php?
ICAO=KBVY

Runways:

(A) RW 09 length 4755 ft width 100 ft
LOC 110.50 / hdg 90

(B) RW 16 length 5001 ft width 100 ft
LOC 110.50 / hdg 157

(C) RW 27 length 4755 ft width 100 ft
LOC 110.50 / hdg 270

(D) RW 34 length 5001 ft width 100 ft
LOC 110.50 / hdg 337

Location; KBVY
Day. 21 / Time. 17.53 Zulu
* Altimeter: 29.79
* Temperature: 07° c. 44.6°f.
* Wind from: 310° Speed 18 kn with Gusts up to 29 kn.
Dewpoint: -04° c.
Visibility: 10 Statute Miles.
Clouds: Broken 4400 ft.

KBVY 211753Z 31018G29KT 10SM BKN044 07/M04 A2979 RMK AO2 PK WND 33031/1722 SLP084 60002 T00671039 10083 20061 53010


Wind From 310°
Speed 18 kn.

 
 
jpsmedia.com for Web Design worldairports.se 2018   terms of use